Time;durP1;ratioP1;P1;durP2;ratioP2;P2;SDS_P1;SDS_P2;PMS_P1;PMS_P2;Temp;Humidity;BMP_temperature;BMP_pressure;BME280_temperature;BME280_humidity;BME280_pressure;Samples;Min_cycle;Max_cycle;Signal;HPM_P1;HPM_P2
2022/09/10 00:00:42;;;;;;;32.15;19.27;;;;;;;16.39;86.93;99023.33;1669985;84;21502;-44
2022/09/10 00:03:09;;;;;;;36.38;20.70;;;;;;;16.41;86.71;99016.08;1669755;84;21025;-47
2022/09/10 00:05:40;;;;;;;35.10;20.80;;;;;;;16.35;87.05;99025.86;1670014;85;21017;-47
2022/09/10 00:08:07;;;;;;;37.75;21.52;;;;;;;16.36;86.77;99014.29;1670062;84;21383;-42
2022/09/10 00:10:42;;;;;;;38.60;22.90;;;;;;;16.30;87.41;99012.16;1669992;86;20998;-43
2022/09/10 00:13:09;;;;;;;42.27;22.37;;;;;;;16.30;87.45;99006.86;1669907;86;21542;-47
2022/09/10 00:15:49;;;;;;;37.98;21.37;;;;;;;16.29;87.07;99002.50;1669740;86;21044;-41
2022/09/10 00:18:17;;;;;;;37.42;21.27;;;;;;;16.25;87.83;98997.94;1667904;86;21041;-40
2022/09/10 00:20:47;;;;;;;39.80;23.20;;;;;;;16.28;87.68;99007.44;1669824;86;21012;-43
2022/09/10 00:23:14;;;;;;;39.40;21.95;;;;;;;16.26;87.84;98997.44;1669825;85;21010;-46
2022/09/10 00:25:41;;;;;;;42.03;21.50;;;;;;;16.29;87.62;98998.03;1669869;86;21545;-42
2022/09/10 00:28:08;;;;;;;40.00;21.35;;;;;;;16.30;87.43;98999.73;1670118;86;21065;-44
2022/09/10 00:30:43;;;;;;;36.00;21.35;;;;;;;16.33;86.88;98993.31;1669922;84;21017;-39
2022/09/10 00:33:09;;;;;;;30.80;19.17;;;;;;;16.30;87.37;98990.44;1669864;86;21518;-45
2022/09/10 00:35:37;;;;;;;36.30;19.48;;;;;;;16.34;87.42;98987.54;1669880;86;21013;-45
2022/09/10 00:38:03;;;;;;;35.75;19.75;;;;;;;16.28;87.81;98988.87;1669986;84;21022;-44
2022/09/10 00:40:30;;;;;;;35.07;20.23;;;;;;;16.31;87.34;98989.45;1670101;86;21017;-44
2022/09/10 00:42:57;;;;;;;33.78;21.05;;;;;;;16.30;87.97;98988.28;1669834;86;21017;-42
2022/09/10 00:45:30;;;;;;;34.00;20.37;;;;;;;16.30;87.20;98980.32;1669970;85;21076;-42
2022/09/10 00:48:10;;;;;;;37.55;20.17;;;;;;;16.31;87.02;98983.31;1670420;84;21085;-49
2022/09/10 00:50:40;;;;;;;34.58;20.10;;;;;;;16.27;87.47;98980.08;1672327;84;21016;-42
2022/09/10 00:53:11;;;;;;;36.38;20.55;;;;;;;16.29;87.68;98987.91;1672573;84;21609;-47
2022/09/10 00:55:40;;;;;;;35.85;20.08;;;;;;;16.24;87.94;98983.47;1672425;86;21020;-48
2022/09/10 00:58:10;;;;;;;35.75;21.60;;;;;;;16.26;87.10;98982.85;1672473;84;21033;-43
2022/09/10 01:00:36;;;;;;;39.90;21.30;;;;;;;16.22;87.69;98982.76;1672556;84;21086;-43
2022/09/10 01:03:06;;;;;;;33.50;20.53;;;;;;;16.14;88.57;98985.23;1672719;85;21601;-47
2022/09/10 01:05:33;;;;;;;35.48;21.25;;;;;;;16.12;88.69;98970.76;1672488;84;21024;-42
2022/09/10 01:07:59;;;;;;;39.27;21.65;;;;;;;16.14;87.74;98974.13;1672579;84;20985;-50
2022/09/10 01:10:29;;;;;;;34.73;20.40;;;;;;;16.14;88.26;98979.92;1672686;85;21009;-46
2022/09/10 01:13:09;;;;;;;39.23;21.00;;;;;;;16.16;88.00;98976.65;1672271;84;21017;-45
2022/09/10 01:16:03;;;;;;;33.63;20.70;;;;;;;16.16;87.97;98970.02;1672523;85;21510;-41
2022/09/10 01:19:03;;;;;;;38.05;20.45;;;;;;;16.14;88.92;98968.81;1672121;86;21004;-42
2022/09/10 01:21:36;;;;;;;37.30;20.20;;;;;;;16.16;88.66;98971.34;1672068;84;21463;-43
2022/09/10 01:24:37;;;;;;;34.03;20.10;;;;;;;16.17;88.31;98965.05;1671558;84;21065;-45
2022/09/10 01:27:29;;;;;;;34.08;20.17;;;;;;;16.10;88.92;98961.59;1672456;84;21041;-49
2022/09/10 01:30:16;;;;;;;34.83;20.57;;;;;;;16.11;89.13;98956.63;1653626;85;21014;-44
2022/09/10 01:33:14;;;;;;;36.70;20.00;;;;;;;16.07;89.37;98951.73;1640802;87;21582;-41
2022/09/10 01:35:48;;;;;;;34.80;19.82;;;;;;;16.06;89.02;98954.01;1621165;87;21041;-42
2022/09/10 01:38:24;;;;;;;35.03;19.90;;;;;;;16.03;89.27;98949.81;1636346;87;21539;-45
2022/09/10 01:40:53;;;;;;;39.83;19.55;;;;;;;16.04;88.45;98948.83;1641672;87;21105;-46
2022/09/10 01:43:19;;;;;;;35.17;19.98;;;;;;;16.04;88.82;98947.50;1641495;86;21075;-50
2022/09/10 01:45:59;;;;;;;35.58;18.67;;;;;;;16.05;88.97;98949.20;1641721;87;21082;-45
2022/09/10 01:48:39;;;;;;;35.75;19.90;;;;;;;16.07;88.63;98949.91;1645461;84;21573;-48
2022/09/10 01:51:47;;;;;;;37.88;20.32;;;;;;;16.04;89.42;98944.84;1695849;84;20987;-49
2022/09/10 01:54:44;;;;;;;37.48;19.87;;;;;;;16.03;89.46;98943.19;1695900;84;21074;-46
2022/09/10 01:57:41;;;;;;;35.52;20.17;;;;;;;16.02;89.09;98928.23;1695973;84;20999;-41
2022/09/10 02:00:10;;;;;;;;;;;;;;;16.01;89.57;98933.19;1698385;83;21524;-46
2022/09/10 02:02:47;;;;;;;37.00;20.45;;;;;;;15.98;90.55;98934.77;1694805;84;20118;-42
2022/09/10 02:05:16;;;;;;;37.48;19.65;;;;;;;15.96;90.18;98936.70;1695939;84;21058;-47
2022/09/10 02:07:45;;;;;;;37.58;19.62;;;;;;;15.91;90.85;98925.64;1695825;84;20983;-42
2022/09/10 02:10:11;;;;;;;38.75;19.00;;;;;;;15.93;90.59;98921.05;1695812;84;21059;-45
2022/09/10 02:12:38;;;;;;;39.55;20.27;;;;;;;15.94;90.51;98926.72;1695761;83;21044;-40
2022/09/10 02:15:07;;;;;;;40.12;19.67;;;;;;;15.99;89.71;98949.72;1695979;84;21466;-44
2022/09/10 02:17:36;;;;;;;34.15;19.45;;;;;;;15.99;90.18;98949.72;1695790;84;21046;-45
2022/09/10 02:20:07;;;;;;;37.58;19.32;;;;;;;15.99;90.71;98941.77;1663952;84;21508;-49
2022/09/10 02:22:38;;;;;;;39.65;19.73;;;;;;;15.97;90.53;98938.87;1695817;84;21014;-49
2022/09/10 02:25:06;;;;;;;35.45;19.05;;;;;;;15.93;90.21;98928.53;1695768;84;21508;-42
2022/09/10 02:27:31;;;;;;;;;;;;;;;15.92;90.71;98924.69;1698435;84;21019;-43
2022/09/10 02:29:57;;;;;;;40.38;20.27;;;;;;;15.92;90.68;98929.98;1695798;84;20135;-42
2022/09/10 02:32:23;;;;;;;39.00;19.92;;;;;;;15.91;91.36;98940.22;1695797;84;21006;-40
2022/09/10 02:34:49;;;;;;;37.85;21.27;;;;;;;15.92;91.35;98939.27;1695753;84;21022;-49
2022/09/10 02:37:15;;;;;;;45.35;21.27;;;;;;;15.91;91.45;98938.89;1695799;84;21019;-47
2022/09/10 02:39:43;;;;;;;44.15;22.45;;;;;;;15.91;91.32;98942.88;1696002;84;21046;-46
2022/09/10 02:42:09;;;;;;;41.15;21.25;;;;;;;15.91;91.04;98937.56;1716207;80;21577;-42
2022/09/10 02:44:35;;;;;;;43.08;21.80;;;;;;;15.91;90.61;98937.56;1722890;83;20962;-43
2022/09/10 02:47:02;;;;;;;42.65;21.77;;;;;;;15.89;91.36;98938.19;1720768;83;21053;-41
2022/09/10 02:49:28;;;;;;;43.52;22.87;;;;;;;15.87;91.36;98940.95;1722962;83;20950;-45
2022/09/10 02:51:54;;;;;;;45.80;22.65;;;;;;;15.85;90.84;98941.58;1722947;83;20972;-41
2022/09/10 02:54:19;;;;;;;44.70;21.42;;;;;;;15.85;91.14;98942.91;1722974;83;20957;-42
2022/09/10 02:56:48;;;;;;;40.43;21.60;;;;;;;15.88;90.96;98946.63;1722616;83;20981;-39
2022/09/10 02:59:13;;;;;;;42.43;22.60;;;;;;;15.85;91.11;98940.25;1721487;83;20985;-44
2022/09/10 03:01:39;;;;;;;45.73;23.67;;;;;;;15.82;91.12;98939.66;1723079;83;21013;-41
2022/09/10 03:04:05;;;;;;;43.45;23.70;;;;;;;15.81;90.66;98937.96;1722962;83;21536;-39
2022/09/10 03:06:31;;;;;;;44.23;22.67;;;;;;;15.76;91.39;98936.20;1721792;83;20969;-38
2022/09/10 03:08:56;;;;;;;47.53;24.37;;;;;;;15.74;91.74;98935.83;1722853;83;20977;-41
2022/09/10 03:11:24;;;;;;;45.17;24.82;;;;;;;15.77;91.04;98941.84;1722962;83;21456;-49
2022/09/10 03:13:50;;;;;;;44.33;24.30;;;;;;;15.78;91.21;98939.56;1723077;83;21494;-42
2022/09/10 03:16:17;;;;;;;47.98;24.80;;;;;;;15.78;90.86;98934.27;1722658;83;20965;-43
2022/09/10 03:18:43;;;;;;;50.40;24.50;;;;;;;15.80;90.68;98934.97;1723141;83;21165;-43
2022/09/10 03:21:17;;;;;;;49.18;25.57;;;;;;;15.80;91.58;98928.34;1722891;83;20967;-44
2022/09/10 03:23:45;;;;;;;54.77;26.20;;;;;;;15.80;91.15;98929.67;1722731;83;21486;-45
2022/09/10 03:26:13;;;;;;;52.60;26.75;;;;;;;15.80;90.47;98931.00;1720697;83;21012;-45
2022/09/10 03:28:40;;;;;;;;;;;;;;;15.78;91.15;98922.33;1725570;83;21028;-46
2022/09/10 03:31:07;;;;;;;54.33;26.10;;;;;;;15.72;92.36;98924.48;1723102;83;20106;-43
2022/09/10 03:33:33;;;;;;;54.03;26.75;;;;;;;15.73;91.86;98921.34;1722550;83;21554;-42
2022/09/10 03:36:00;;;;;;;58.30;27.77;;;;;;;15.72;91.90;98916.53;1723242;83;21020;-43
2022/09/10 03:38:26;;;;;;;52.98;26.65;;;;;;;15.73;91.80;98912.06;1723220;83;21000;-42
2022/09/10 03:40:53;;;;;;;56.70;28.10;;;;;;;15.76;91.79;98910.52;1723185;83;20993;-45
2022/09/10 03:43:21;;;;;;;56.87;28.33;;;;;;;15.79;91.38;98912.06;1719172;83;21042;-43
2022/09/10 03:45:48;;;;;;;59.27;29.05;;;;;;;15.72;91.76;98904.60;1722412;83;20994;-42
2022/09/10 03:48:16;;;;;;;67.05;30.45;;;;;;;15.71;92.28;98901.58;1722561;83;20942;-45
2022/09/10 03:50:44;;;;;;;61.25;29.67;;;;;;;15.70;91.98;98905.22;1722670;83;21005;-41
2022/09/10 03:53:11;;;;;;;67.05;31.62;;;;;;;15.72;92.01;98901.95;1723284;83;20949;-43
2022/09/10 03:55:37;;;;;;;;;;;;;;;15.76;91.64;98900.41;1725619;83;21545;-44
2022/09/10 03:58:05;;;;;;;65.67;30.85;;;;;;;15.71;92.36;98894.13;1722815;83;20094;-43
2022/09/10 04:00:32;;;;;;;62.20;29.72;;;;;;;15.69;91.09;98889.44;1721661;83;20941;-39
2022/09/10 04:02:59;;;;;;;64.42;30.45;;;;;;;15.66;92.58;98888.36;1722423;83;21025;-40
2022/09/10 04:05:26;;;;;;;70.90;30.70;;;;;;;15.65;92.30;98891.99;1723023;83;20989;-39
2022/09/10 04:07:53;;;;;;;56.98;28.42;;;;;;;15.63;92.38;98888.14;1722691;83;20966;-41
2022/09/10 04:10:20;;;;;;;62.98;30.05;;;;;;;15.62;92.53;98884.28;1723268;83;20977;-44
2022/09/10 04:12:52;;;;;;;60.67;28.47;;;;;;;15.65;91.99;98880.06;1723136;83;20941;-41
2022/09/10 04:15:18;;;;;;;62.00;27.58;;;;;;;15.68;91.73;98887.73;1722893;83;20941;-43
2022/09/10 04:17:46;;;;;;;61.25;28.95;;;;;;;15.67;91.76;98892.20;1723119;83;21028;-45
2022/09/10 04:20:12;;;;;;;53.25;27.95;;;;;;;15.66;91.94;98894.98;1723191;83;21020;-47
2022/09/10 04:22:38;;;;;;;55.38;27.17;;;;;;;15.68;91.86;98888.60;1723083;83;20989;-41
2022/09/10 04:25:07;;;;;;;55.70;27.20;;;;;;;15.69;91.69;98878.34;1722888;83;20981;-40
2022/09/10 04:27:33;;;;;;;59.23;28.62;;;;;;;15.70;91.60;98878.71;1721653;83;20954;-41
2022/09/10 04:29:58;;;;;;;56.05;27.82;;;;;;;15.69;91.29;98873.53;1722654;83;21013;-41
2022/09/10 04:32:24;;;;;;;61.75;28.30;;;;;;;15.70;91.53;98868.11;1722997;83;20957;-45
2022/09/10 04:34:50;;;;;;;59.67;29.92;;;;;;;15.73;91.26;98870.97;1723064;83;21016;-40
2022/09/10 04:37:17;;;;;;;61.13;28.77;;;;;;;15.71;91.06;98868.45;1722202;83;20977;-46
2022/09/10 04:39:43;;;;;;;59.95;29.90;;;;;;;15.72;91.15;98874.12;1723070;83;21465;-44
2022/09/10 04:42:09;;;;;;;58.95;28.95;;;;;;;15.72;91.37;98870.63;1710583;83;21035;-41
2022/09/10 04:44:35;;;;;;;58.50;29.10;;;;;;;15.74;91.32;98881.48;1676639;85;21503;-43
2022/09/10 04:47:01;;;;;;;57.10;29.18;;;;;;;15.77;91.24;98879.55;1675203;85;20999;-43
2022/09/10 04:49:26;;;;;;;62.62;29.95;;;;;;;15.78;90.62;98879.91;1678333;85;21055;-45
2022/09/10 04:51:52;;;;;;;65.22;30.52;;;;;;;15.76;91.02;98879.20;1678731;85;21006;-40
2022/09/10 04:54:18;;;;;;;64.53;30.08;;;;;;;15.78;91.08;98875.94;1678624;85;21544;-41
2022/09/10 04:56:46;;;;;;;64.62;31.65;;;;;;;15.80;90.59;98880.63;1678808;85;20972;-44
2022/09/10 04:59:12;;;;;;;65.87;31.27;;;;;;;15.83;90.16;98879.05;1678546;85;21032;-44
2022/09/10 05:01:38;;;;;;;62.15;30.17;;;;;;;15.79;90.36;98873.63;1678511;85;21457;-43
2022/09/10 05:04:04;;;;;;;60.70;30.68;;;;;;;15.79;90.42;98873.16;1678891;85;21007;-41
2022/09/10 05:06:29;;;;;;;58.00;29.60;;;;;;;15.81;90.40;98873.00;1678893;85;21039;-43
2022/09/10 05:08:55;;;;;;;64.50;29.85;;;;;;;15.80;90.64;98866.88;1678721;85;21003;-47
2022/09/10 05:11:22;;;;;;;58.75;29.75;;;;;;;15.79;90.30;98861.23;1678731;85;21521;-44
2022/09/10 05:13:48;;;;;;;63.10;29.55;;;;;;;15.82;90.16;98859.63;1678887;85;21035;-42
2022/09/10 05:16:14;;;;;;;55.23;29.10;;;;;;;15.85;90.10;98862.52;1678677;85;21488;-46
2022/09/10 05:18:39;;;;;;;64.92;29.85;;;;;;;15.86;89.92;98858.89;1678806;85;21016;-44
2022/09/10 05:21:05;;;;;;;61.15;28.07;;;;;;;15.88;89.79;98851.64;1678759;85;20995;-45
2022/09/10 05:23:31;;;;;;;57.17;27.80;;;;;;;15.91;89.82;98852.72;1678761;85;21147;-45
2022/09/10 05:25:58;;;;;;;56.63;26.90;;;;;;;15.93;89.38;98857.40;1678918;85;21007;-45
2022/09/10 05:28:24;;;;;;;50.83;25.88;;;;;;;15.94;89.09;98853.80;1678865;85;21188;-41
2022/09/10 05:30:50;;;;;;;50.15;25.57;;;;;;;15.93;89.08;98852.09;1678718;85;21504;-47
2022/09/10 05:33:16;;;;;;;49.85;26.77;;;;;;;15.98;88.77;98860.52;1678845;85;21063;-43
2022/09/10 05:35:42;;;;;;;49.08;26.62;;;;;;;16.00;88.89;98853.26;1678779;85;20984;-43
2022/09/10 05:38:10;;;;;;;48.15;26.10;;;;;;;15.97;89.14;98859.31;1678762;85;21003;-45
2022/09/10 05:40:36;;;;;;;54.55;26.40;;;;;;;16.02;88.43;98852.64;1678714;85;20984;-43
2022/09/10 05:43:02;;;;;;;53.15;24.60;;;;;;;15.99;88.57;98854.25;1700227;83;21470;-43
2022/09/10 05:45:28;;;;;;;43.63;24.45;;;;;;;15.99;88.93;98852.06;1722872;83;20977;-43
2022/09/10 05:47:54;;;;;;;44.77;24.43;;;;;;;15.98;88.69;98859.19;1723197;82;21001;-44
2022/09/10 05:50:20;;;;;;;49.40;23.67;;;;;;;15.96;88.60;98851.84;1723140;83;20945;-47
2022/09/10 05:52:46;;;;;;;47.58;24.37;;;;;;;15.97;88.35;98852.68;1722905;83;20941;-44
2022/09/10 05:55:12;;;;;;;42.93;24.75;;;;;;;15.96;88.66;98847.87;1722907;83;21029;-44
2022/09/10 05:57:39;;;;;;;45.12;23.73;;;;;;;15.98;88.14;98843.27;1722939;83;20969;-43
2022/09/10 06:00:09;;;;;;;46.60;25.25;;;;;;;15.96;88.63;98847.04;1722987;83;21522;-39
2022/09/10 06:02:36;;;;;;;48.23;25.20;;;;;;;15.95;88.62;98851.48;1722922;82;21470;-44
2022/09/10 06:05:02;;;;;;;49.90;24.27;;;;;;;15.95;88.97;98850.16;1723172;83;20949;-38
2022/09/10 06:07:29;;;;;;;52.62;25.20;;;;;;;15.94;88.53;98851.14;1723087;83;21445;-44
2022/09/10 06:09:56;;;;;;;43.05;24.80;;;;;;;15.89;88.68;98850.19;1723050;83;21013;-39
2022/09/10 06:12:23;;;;;;;49.48;24.85;;;;;;;15.95;88.63;98852.80;1723026;83;21506;-41
2022/09/10 06:14:49;;;;;;;47.38;25.37;;;;;;;15.96;88.54;98848.36;1722979;83;21506;-43
2022/09/10 06:17:18;;;;;;;48.10;24.37;;;;;;;15.94;88.60;98853.80;1722979;83;21384;-43
2022/09/10 06:19:45;;;;;;;47.70;25.88;;;;;;;15.93;88.57;98852.09;1722932;83;21479;-42
2022/09/10 06:22:12;;;;;;;46.85;24.10;;;;;;;15.91;88.64;98857.52;1716076;83;20950;-43
2022/09/10 06:24:38;;;;;;;46.65;24.57;;;;;;;15.92;88.68;98859.72;1711788;83;20993;-41
2022/09/10 06:27:05;;;;;;;46.37;23.20;;;;;;;15.90;89.09;98861.16;1722506;83;21427;-39
2022/09/10 06:32:12;;;;;;;46.48;24.30;;;;;;;15.93;89.89;98851.63;1818585;79;22650;-44
2022/09/10 06:34:38;;;;;;;43.15;23.38;;;;;;;15.88;90.01;98852.50;1791919;80;21027;-47
2022/09/10 06:39:52;;;;;;;44.45;24.07;;;;;;;15.86;90.66;98844.30;1856165;77;23493;-43
2022/09/10 06:42:18;;;;;;;43.38;22.15;;;;;;;15.79;92.35;98852.42;1824583;78;21039;-42
2022/09/10 06:44:44;;;;;;;42.33;21.05;;;;;;;15.77;92.40;98852.57;1825636;78;21026;-42
2022/09/10 06:47:10;;;;;;;37.45;21.35;;;;;;;15.79;92.36;98861.69;1825596;78;20978;-45
2022/09/10 06:49:35;;;;;;;38.58;19.80;;;;;;;15.78;92.60;98864.84;1825663;78;21037;-45
2022/09/10 06:52:01;;;;;;;39.73;20.95;;;;;;;15.76;92.67;98868.59;1825671;78;21448;-45
2022/09/10 06:54:27;;;;;;;35.33;20.50;;;;;;;15.72;94.53;98868.81;1825696;78;20984;-42
2022/09/10 06:56:53;;;;;;;37.28;19.82;;;;;;;15.72;93.52;98878.09;1825693;78;21495;-38
2022/09/10 06:59:19;;;;;;;37.42;20.25;;;;;;;15.71;94.06;98890.98;1825561;78;21569;-40
2022/09/10 07:01:46;;;;;;;41.68;19.70;;;;;;;15.68;94.90;98892.58;1825628;78;20963;-45
2022/09/10 07:04:12;;;;;;;27.17;16.55;;;;;;;15.65;95.14;98888.02;1825886;78;21026;-46
2022/09/10 07:06:37;;;;;;;29.75;16.70;;;;;;;15.64;94.32;98887.15;1825556;78;20983;-42
2022/09/10 07:09:04;;;;;;;20.62;13.32;;;;;;;15.60;96.01;98891.03;1825599;78;20974;-44
2022/09/10 07:11:31;;;;;;;23.20;12.40;;;;;;;15.57;95.07;98891.27;1825863;78;20954;-41
2022/09/10 07:13:59;;;;;;;18.02;11.30;;;;;;;15.57;95.41;98891.27;1825724;78;21017;-40
2022/09/10 07:16:26;;;;;;;16.25;10.20;;;;;;;15.56;95.68;98884.31;1825669;78;20947;-40
2022/09/10 07:18:56;;;;;;;16.27;9.98;;;;;;;15.59;96.05;98884.52;1825571;78;20970;-46
2022/09/10 07:21:25;;;;;;;12.00;8.48;;;;;;;15.61;96.04;98882.59;1825575;78;21002;-42
2022/09/10 07:23:57;;;;;;;11.63;7.65;;;;;;;15.59;95.52;98881.88;1825682;78;20970;-41
2022/09/10 07:26:24;;;;;;;9.70;6.55;;;;;;;15.59;94.97;98890.69;1825414;78;20983;-45
2022/09/10 07:28:51;;;;;;;9.00;6.07;;;;;;;15.63;94.61;98885.98;1825874;78;20982;-46
2022/09/10 07:31:21;;;;;;;10.55;5.90;;;;;;;15.64;94.88;98896.92;1824644;78;21203;-42
2022/09/10 07:33:48;;;;;;;11.25;5.83;;;;;;;15.62;94.96;98901.02;1824331;78;21069;-41
2022/09/10 07:36:15;;;;;;;;;;;;;;;15.60;94.99;98897.66;1828295;78;20979;-43
2022/09/10 07:38:42;;;;;;;9.43;6.20;;;;;;;15.59;94.93;98897.31;1827115;78;20120;-44
2022/09/10 07:41:10;;;;;;;9.57;5.97;;;;;;;15.57;95.57;98896.58;1829333;78;21456;-40
2022/09/10 07:43:40;;;;;;;9.10;6.33;;;;;;;15.54;95.36;98899.00;1829150;78;20982;-42
2022/09/10 07:46:07;;;;;;;9.08;6.25;;;;;;;15.57;95.22;98895.73;1828240;78;20970;-42
2022/09/10 07:48:33;;;;;;;8.63;6.40;;;;;;;15.57;95.76;98890.44;1829121;78;21510;-40
2022/09/10 07:51:05;;;;;;;7.72;6.33;;;;;;;15.59;95.26;98884.52;1828482;78;21408;-47
2022/09/10 07:53:31;;;;;;;9.23;6.53;;;;;;;15.59;95.05;98881.41;1828469;78;20966;-42
2022/09/10 07:56:03;;;;;;;11.40;6.53;;;;;;;15.60;94.87;98878.27;1828570;78;20950;-45
2022/09/10 07:58:31;;;;;;;10.38;6.70;;;;;;;15.62;94.83;98879.81;1828432;78;20982;-42
2022/09/10 08:01:01;;;;;;;9.83;7.05;;;;;;;15.61;95.63;98875.50;1828422;78;20990;-40
2022/09/10 08:03:28;;;;;;;11.15;6.75;;;;;;;15.65;94.52;98875.59;1814739;78;21428;-40
2022/09/10 08:05:56;;;;;;;10.63;6.08;;;;;;;15.66;94.46;98875.97;1796076;79;20991;-43
2022/09/10 08:08:23;;;;;;;7.72;5.17;;;;;;;15.67;93.92;98880.28;1795414;80;20973;-41
2022/09/10 08:10:48;;;;;;;8.13;4.85;;;;;;;15.68;94.02;98879.33;1795915;80;20951;-41
2022/09/10 08:13:15;;;;;;;7.22;5.50;;;;;;;15.67;94.63;98882.09;1795859;80;21448;-41
2022/09/10 08:15:43;;;;;;;5.35;4.83;;;;;;;15.65;94.87;98880.89;1796258;80;21519;-49
2022/09/10 08:18:12;;;;;;;6.72;4.95;;;;;;;15.65;94.64;98864.99;1768487;80;20982;-44
2022/09/10 08:20:39;;;;;;;5.72;4.58;;;;;;;15.64;94.01;98863.30;1794925;80;20972;-42
2022/09/10 08:23:06;;;;;;;5.92;4.37;;;;;;;15.67;94.73;98862.22;1796179;80;20967;-44
2022/09/10 08:25:33;;;;;;;8.73;4.70;;;;;;;15.73;93.79;98861.23;1796215;80;21526;-43
2022/09/10 08:27:59;;;;;;;6.83;3.75;;;;;;;15.72;94.15;98873.28;1796120;80;20993;-44
2022/09/10 08:30:25;;;;;;;8.03;4.60;;;;;;;15.70;94.07;98866.78;1796032;80;20985;-42
2022/09/10 08:32:51;;;;;;;7.58;5.22;;;;;;;15.67;94.28;98867.03;1796071;80;20985;-43
2022/09/10 08:35:18;;;;;;;5.92;4.35;;;;;;;15.68;93.78;98872.70;1796092;80;21451;-43
2022/09/10 08:37:44;;;;;;;3.95;3.55;;;;;;;15.69;94.13;98874.86;1796270;80;20987;-42
2022/09/10 08:40:12;;;;;;;4.40;3.58;;;;;;;15.70;93.71;98886.66;1798002;80;21499;-45
2022/09/10 08:42:42;;;;;;;5.30;3.62;;;;;;;15.73;94.04;98881.58;1798213;80;21400;-41
2022/09/10 08:45:19;;;;;;;4.83;3.72;;;;;;;15.74;94.98;98874.03;1797536;80;21562;-43
2022/09/10 08:48:07;;;;;;;4.40;3.58;;;;;;;15.74;94.69;98872.20;1798418;80;21353;-44
2022/09/10 08:50:40;;;;;;;3.80;3.40;;;;;;;15.71;94.50;98868.45;1798270;80;20986;-42
2022/09/10 08:53:33;;;;;;;4.15;3.47;;;;;;;15.76;93.90;98867.27;1769319;80;21005;-43
2022/09/10 08:56:16;;;;;;;4.67;3.35;;;;;;;15.78;94.30;98866.66;1797831;80;21611;-39
2022/09/10 08:58:57;;;;;;;4.33;3.17;;;;;;;15.80;94.64;98864.72;1798228;80;21026;-44
2022/09/10 09:01:49;;;;;;;4.85;3.40;;;;;;;15.81;95.47;98867.70;1798211;80;20970;-43
2022/09/10 09:04:21;;;;;;;3.72;3.40;;;;;;;15.81;95.10;98866.37;1798250;80;20959;-44
2022/09/10 09:06:55;;;;;;;4.22;3.10;;;;;;;15.79;94.45;98867.00;1795272;80;20987;-46
2022/09/10 09:09:21;;;;;;;8.15;3.50;;;;;;;15.81;93.89;98864.59;1798178;80;21017;-41
2022/09/10 09:11:55;;;;;;;4.20;3.37;;;;;;;15.80;93.95;98863.39;1798178;80;20982;-49
2022/09/10 09:14:58;;;;;;;4.62;3.42;;;;;;;15.79;93.82;98857.25;1798271;80;20993;-44
2022/09/10 09:17:47;;;;;;;4.95;3.50;;;;;;;15.79;94.20;98861.23;1747679;80;20966;-44
2022/09/10 09:20:18;;;;;;;4.37;3.52;;;;;;;15.78;93.97;98858.21;1798300;80;21010;-39
2022/09/10 09:23:03;;;;;;;3.83;3.35;;;;;;;15.74;94.31;98851.00;1798409;80;21127;-44
2022/09/10 09:25:40;;;;;;;4.10;3.00;;;;;;;15.72;94.67;98848.94;1797368;80;20979;-40
2022/09/10 09:28:12;;;;;;;4.67;3.20;;;;;;;15.73;94.44;98841.35;1797732;80;20967;-39
2022/09/10 09:30:48;;;;;;;4.10;3.25;;;;;;;15.72;94.83;98842.30;1797720;80;21511;-46
2022/09/10 09:33:15;;;;;;;5.90;3.30;;;;;;;15.76;94.32;98835.47;1797103;80;20990;-46
2022/09/10 09:36:00;;;;;;;3.83;3.52;;;;;;;15.72;94.59;98837.50;1798227;80;20990;-47
2022/09/10 09:38:30;;;;;;;5.92;3.20;;;;;;;15.71;94.32;98827.36;1796567;80;21025;-39
2022/09/10 09:41:00;;;;;;;3.40;3.08;;;;;;;15.76;94.19;98823.53;1781438;80;21520;-46
2022/09/10 09:44:01;;;;;;;3.30;2.98;;;;;;;15.80;93.83;98827.59;1781528;80;21485;-45
2022/09/10 09:46:27;;;;;;;4.22;3.58;;;;;;;15.80;93.96;98820.97;1776624;80;21440;-43
2022/09/10 09:48:57;;;;;;;3.50;3.20;;;;;;;15.83;93.74;98822.88;1781488;80;20987;-47
2022/09/10 09:51:24;;;;;;;5.15;3.25;;;;;;;15.87;93.93;98817.66;1780667;80;21058;-47
2022/09/10 09:53:54;;;;;;;7.55;3.30;;;;;;;15.91;94.70;98816.92;1781615;80;21007;-39
2022/09/10 09:56:28;;;;;;;4.92;4.20;;;;;;;15.93;94.84;98816.30;1781400;80;21491;-42
2022/09/10 09:58:57;;;;;;;4.65;3.55;;;;;;;15.96;94.92;98817.38;1781205;80;20979;-49
2022/09/10 10:01:25;;;;;;;4.00;3.67;;;;;;;15.98;95.56;98818.08;1781231;80;20971;-46
2022/09/10 10:04:01;;;;;;;4.60;4.08;;;;;;;16.04;95.73;98818.88;1781446;80;20994;-42
2022/09/10 10:06:33;;;;;;;4.78;3.90;;;;;;;16.06;95.09;98816.95;1781673;80;21041;-44
2022/09/10 10:09:09;;;;;;;4.55;4.15;;;;;;;16.14;94.38;98823.41;1781475;80;20975;-49
2022/09/10 10:11:52;;;;;;;4.90;4.00;;;;;;;16.17;94.50;98823.12;1779859;80;21456;-43
2022/09/10 10:14:24;;;;;;;5.60;4.03;;;;;;;16.18;94.88;98825.66;1781269;80;20971;-42
2022/09/10 10:16:52;;;;;;;4.50;3.87;;;;;;;16.23;94.61;98822.62;1781549;80;20983;-42
2022/09/10 10:19:35;;;;;;;6.67;4.65;;;;;;;16.20;93.87;98824.20;1781468;80;20983;-44
2022/09/10 10:22:20;;;;;;;5.67;4.05;;;;;;;16.15;93.77;98826.41;1781465;80;20991;-41
2022/09/10 10:24:49;;;;;;;6.42;4.75;;;;;;;16.17;94.26;98820.02;1781507;80;21002;-42
2022/09/10 10:27:35;;;;;;;6.50;5.67;;;;;;;16.18;95.05;98819.02;1781403;80;21030;-40
2022/09/10 10:30:15;;;;;;;5.37;4.20;;;;;;;16.18;94.67;98819.52;1768940;80;20988;-39
2022/09/10 10:32:55;;;;;;;4.75;4.35;;;;;;;16.15;94.73;98818.45;1781473;80;21030;-39
2022/09/10 10:35:38;;;;;;;4.55;4.00;;;;;;;16.18;94.70;98816.87;1781515;80;21074;-40
2022/09/10 10:38:29;;;;;;;4.67;4.20;;;;;;;16.15;94.23;98813.97;1781417;80;20983;-41
2022/09/10 10:41:08;;;;;;;6.15;4.42;;;;;;;16.17;94.99;98817.83;1781351;80;21023;-44
2022/09/10 10:44:00;;;;;;;5.35;3.80;;;;;;;16.22;95.46;98815.62;1781435;80;20982;-44
2022/09/10 10:46:55;;;;;;;7.72;4.85;;;;;;;16.23;94.74;98815.98;1780925;80;21499;-40
2022/09/10 10:49:42;;;;;;;5.72;4.47;;;;;;;16.25;94.87;98818.84;1781445;80;21026;-45
2022/09/10 10:52:25;;;;;;;5.77;4.30;;;;;;;16.27;94.42;98817.39;1780208;80;20991;-41
2022/09/10 10:55:22;;;;;;;4.78;4.37;;;;;;;16.28;94.52;98819.92;1749611;80;21428;-44
2022/09/10 10:58:11;;;;;;;4.50;4.10;;;;;;;16.28;94.56;98813.75;1781451;80;21472;-46
2022/09/10 11:00:42;;;;;;;4.60;4.20;;;;;;;16.28;94.74;98817.73;1781131;80;20995;-42
2022/09/10 11:03:17;;;;;;;6.25;4.58;;;;;;;16.24;93.98;98817.16;1781447;80;21104;-44
2022/09/10 11:05:48;;;;;;;6.90;4.50;;;;;;;16.27;94.22;98817.39;1779540;80;20995;-40
2022/09/10 11:08:34;;;;;;;5.00;4.50;;;;;;;16.23;94.30;98814.66;1779685;80;20952;-43
2022/09/10 11:11:08;;;;;;;5.83;4.45;;;;;;;16.24;94.66;98816.33;1781490;80;21038;-43
2022/09/10 11:13:56;;;;;;;5.45;4.95;;;;;;;16.18;94.04;98816.38;1781498;80;21512;-39
2022/09/10 11:16:40;;;;;;;6.33;4.92;;;;;;;16.17;94.58;98815.17;1762235;80;21456;-44
2022/09/10 11:19:26;;;;;;;5.50;4.65;;;;;;;16.17;94.38;98814.70;1780209;80;21043;-42
2022/09/10 11:22:06;;;;;;;4.90;4.47;;;;;;;16.17;94.42;98805.89;1745776;82;21061;-40
2022/09/10 11:24:56;;;;;;;6.47;5.87;;;;;;;16.15;95.12;98810.48;1739372;82;21153;-41
2022/09/10 11:27:36;;;;;;;5.87;5.10;;;;;;;16.18;95.24;98812.39;1745823;82;21504;-40
2022/09/10 11:30:07;;;;;;;6.87;5.40;;;;;;;16.20;95.59;98813.59;1745822;82;20987;-43
2022/09/10 11:32:50;;;;;;;7.35;5.37;;;;;;;16.19;95.84;98813.22;1745810;82;21002;-41
2022/09/10 11:35:36;;;;;;;5.95;5.28;;;;;;;16.20;95.54;98809.61;1746092;82;21022;-42
2022/09/10 11:38:28;;;;;;;11.40;6.97;;;;;;;16.22;94.45;98811.14;1746311;82;20979;-41
2022/09/10 11:41:27;;;;;;;8.03;6.08;;;;;;;16.19;95.38;98809.24;1748452;82;20999;-44
2022/09/10 11:44:18;;;;;;;6.22;5.22;;;;;;;16.17;95.91;98802.77;1748866;82;21018;-43
2022/09/10 11:46:58;;;;;;;7.20;5.65;;;;;;;16.18;94.90;98800.45;1748874;82;20990;-43
2022/09/10 11:49:41;;;;;;;7.28;5.92;;;;;;;16.18;95.21;98800.95;1748738;82;20971;-41